Hlavní strana
METAR-TAF:

METAR-TAF

Letiště :

Sofie, Bulharsko

Letiště Sofie

zeměpisná šířka: 42-39N, zeměpisná délka: 023-23E, výška: 586 m

Aktuální stav počasí

Zpráva byla vytvořena před 33 minutami, v 18:30 UTC
Jihojihozápadní vítr 4 kt, proměnlivý mezi jihovýchodním a jihojihozápadním
Teplota 19°C
Vlhkost vzduchu 46%
Tlak 1016 hPa
Viditelnost 10 km a více
Žádná oblačnost pod 1500 m, nevyskytují se cumulonimby.

METAR: LBSF 231830Z 21004KT 140V210 CAVOK 19/07 Q1016 NOSIG

Čas: 22:03 (19:03 UTC)

Předpověď počasí

Zpráva byla vytvořena před 2 hodinami a 3 minutami, v 17:00 UTC
Předpověď platná od 23 v 18 UTC do 24 v 18 UTC
Severoseverovýchodní vítr 10 kt
Viditelnost 10 km a více
Skoro jasno ve výšce 6000 ft
Změna
od 23 v 19 UTC do 23 v 21 UTC
vítr z různých směrů 4 kt
Změna
od 24 v 09 UTC do 24 v 11 UTC
Západoseverozápadní vítr 10 kt

TAF: LBSF 231700Z 2318/2418 03010KT 9999 FEW060 BECMG 2319/2321 VRB04KT BECMG 2409/2411 29010KT

Stav a předpovědi počasí z více než 4 000 letišť (zprávy METAR a TAF).

Červené a žluté tečky na mapě představují dostupné meteorologické stanice.

Když kurzor umístíte na tečku, zobrazí se název stanice.

Pak kliknutím zobrazíte stav a předpověď počasí.

Chcete-li změnit mapu, kliknutím na zelené tlačítko se znaménkem +mapu přiblížíte, kliknutím na zelené tlačítko se znaménkem – mapu oddálíte a kliknutím na zelené šipky přejdete na sousední mapy.


METAR-TAF: